Stations météo

réclame
Mon MeteoGroup
Zumaya, Espagne (8026): Température de l'air & dewpoint: 11.12.2018 01:00:00 - 17.12.2018 01:00:00 (CET)Zumaya, Espagne (8026): Vitesse du vent & gusts: 11.12.2018 01:00:00 - 17.12.2018 01:00:00 (CET)Zumaya, Espagne (8026): Direction du vent: 11.12.2018 01:00:00 - 17.12.2018 01:00:00 (CET)Zumaya, Espagne (8026): Quantités de précipitations: 11.12.2018 01:00:00 - 17.12.2018 01:00:00 (CET)
Date & Time tt [°C] td [°C] ff [km/h] ff [knt] fx [km/h] fx [knt] dd rr [mm]
17.12.2018 01:00:00 12,2 4,5 9 5 31 17 WSW -
17.12.2018 00:00:00 12,5 5,5 6 4 30 16 W 0,0
16.12.2018 23:00:00 11,0 5,9 8 4 44 24 SW 0,3
16.12.2018 22:00:00 11,9 5,3 9 5 44 24 W 0,0
16.12.2018 21:00:00 12,2 6,2 8 4 25 13 W 0,0
16.12.2018 20:00:00 11,8 6,1 10 5 44 24 W 0,0
16.12.2018 19:00:00 12,3 7,4 16 9 72 39 WNW -
16.12.2018 18:00:00 13,2 7,8 15 8 74 40 WNW 0,0
16.12.2018 17:00:00 13,4 9,3 15 8 33 18 WNW 0,1
16.12.2018 16:00:00 13,3 10,6 1 0 9 5 NW 0,0
16.12.2018 15:00:00 14,2 13,0 1 1 9 5 NNW 0,0
16.12.2018 14:00:00 13,9 13,6 6 4 29 16 SSE 0,4
16.12.2018 13:00:00 12,4 11,9 13 7 26 14 WNW -
16.12.2018 12:00:00 12,4 12,2 2 1 12 6 WNW 0,0
16.12.2018 11:00:00 12,0 11,9 0 0 15 8 N 0,0
16.12.2018 10:00:00 11,5 11,3 5 3 12 7 S 0,1
16.12.2018 09:00:00 11,2 11,0 6 3 14 8 SSE 0,3
16.12.2018 08:00:00 11,3 11,1 5 3 18 10 S 1,4
16.12.2018 07:00:00 11,3 11,1 0 0 23 12 N -
16.12.2018 06:00:00 12,0 11,9 12 7 29 16 NW 2,0
16.12.2018 05:00:00 12,5 12,3 16 9 29 16 N 1,6
16.12.2018 04:00:00 13,2 12,5 19 10 26 14 NNW 0,3
16.12.2018 03:00:00 14,5 13,8 5 3 14 8 WNW 0,0
16.12.2018 02:00:00 14,6 13,7 4 2 13 7 NNE 0,0
16.12.2018 01:00:00 14,9 13,5 6 4 26 14 NW -
16.12.2018 00:00:00 16,5 11,7 20 11 33 18 NW 0,0
15.12.2018 23:00:00 16,6 9,6 23 12 46 25 S 0,0
15.12.2018 22:00:00 16,8 9,2 30 16 49 26 S 0,0
15.12.2018 21:00:00 17,5 9,7 28 15 53 29 S 0,0
15.12.2018 20:00:00 17,6 9,4 36 19 54 29 SSW 0,0
15.12.2018 19:00:00 17,1 9,3 39 21 55 30 S -
15.12.2018 18:00:00 16,5 8,7 26 14 47 25 S 0,0
15.12.2018 17:00:00 17,5 9,7 16 9 37 20 SSW 0,0
15.12.2018 16:00:00 17,6 10,5 11 6 26 14 S 0,0
15.12.2018 15:00:00 17,2 10,5 16 9 48 26 S 0,0
15.12.2018 14:00:00 16,7 10,5 27 15 41 22 S 0,0
15.12.2018 13:00:00 16,1 10,6 25 13 40 21 S -
15.12.2018 12:00:00 15,6 11,0 27 15 45 25 S 0,0
15.12.2018 11:00:00 14,1 10,6 33 18 48 26 S 0,0
15.12.2018 10:00:00 13,3 11,2 25 14 41 22 S 0,1
15.12.2018 09:00:00 12,0 10,5 24 13 34 19 S 0,1
15.12.2018 08:00:00 11,7 10,2 18 10 34 19 S 0,6
15.12.2018 07:00:00 12,4 10,3 23 12 42 23 S -
15.12.2018 06:00:00 11,0 8,9 13 7 23 12 SSW 0,0
15.12.2018 05:00:00 10,1 8,3 11 6 18 10 S 0,0
15.12.2018 04:00:00 9,9 8,4 14 7 38 21 S 0,0
15.12.2018 03:00:00 9,1 8,1 13 7 18 10 S 0,0
15.12.2018 02:00:00 8,8 8,4 14 8 19 10 S 0,0
15.12.2018 01:00:00 8,5 8,1 13 7 18 10 S -
15.12.2018 00:00:00 8,4 8,0 14 8 21 11 SSW 0,0
14.12.2018 23:00:00 8,2 7,7 12 7 17 9 S 0,0
14.12.2018 22:00:00 9,2 8,7 10 6 17 9 S 0,0
14.12.2018 21:00:00 9,7 9,0 11 6 16 9 S 0,0
14.12.2018 20:00:00 9,9 9,2 6 3 11 6 S 0,0
14.12.2018 19:00:00 10,9 9,3 1 1 14 7 SSW -
14.12.2018 18:00:00 11,4 10,4 0 0 19 11 N 2,0
14.12.2018 17:00:00 11,7 10,2 16 9 39 21 WNW 0,0
14.12.2018 16:00:00 11,9 10,3 10 5 33 18 WNW 0,0
14.12.2018 15:00:00 11,5 10,8 12 6 33 18 WNW 1,2
14.12.2018 14:00:00 11,4 10,6 14 8 51 27 WNW 1,4
14.12.2018 13:00:00 12,0 10,8 15 8 50 27 WNW -
14.12.2018 12:00:00 11,4 10,6 37 20 60 33 NW 1,5
14.12.2018 11:00:00 11,8 10,0 12 6 79 43 WNW 0,0
14.12.2018 10:00:00 11,8 10,9 41 22 60 32 NW 2,0
14.12.2018 09:00:00 11,3 10,0 22 12 54 29 WNW 3,7
14.12.2018 08:00:00 11,6 10,2 32 18 66 36 WNW 1,4
14.12.2018 07:00:00 11,9 9,7 21 11 57 31 WNW -
14.12.2018 06:00:00 12,1 9,4 20 11 48 26 WNW 0,2
14.12.2018 05:00:00 12,3 9,6 18 10 49 26 WNW 0,0
14.12.2018 04:00:00 11,8 9,0 18 10 41 22 WNW 0,0
14.12.2018 03:00:00 12,3 8,9 14 7 44 24 WNW 0,0
14.12.2018 02:00:00 12,4 10,3 31 17 77 42 NW 0,2
14.12.2018 01:00:00 12,5 10,8 45 24 87 47 NW -
14.12.2018 00:00:00 12,5 10,9 40 21 67 36 NW 0,8
13.12.2018 23:00:00 12,6 10,9 37 20 68 37 NW 0,1
13.12.2018 22:00:00 12,7 10,0 46 25 77 42 NW 0,0
13.12.2018 21:00:00 12,8 10,5 39 21 74 40 NW 0,0
13.12.2018 20:00:00 12,9 10,6 50 27 82 45 NW 0,0
13.12.2018 19:00:00 12,9 10,6 54 29 79 42 NW -
13.12.2018 18:00:00 12,5 11,1 52 28 79 42 NW 0,4
13.12.2018 17:00:00 12,9 11,1 49 26 66 35 NW 0,8
13.12.2018 16:00:00 11,5 9,6 8 5 33 18 WNW 1,6
13.12.2018 15:00:00 11,4 9,4 9 5 33 18 W 1,1
13.12.2018 14:00:00 11,1 9,2 7 4 30 16 W 1,7
13.12.2018 13:00:00 10,8 8,9 10 5 34 19 WNW -
13.12.2018 12:00:00 11,7 10,2 14 7 41 22 WNW 2,3
13.12.2018 11:00:00 12,8 10,2 4 2 24 13 W 2,2
13.12.2018 10:00:00 14,0 9,7 9 5 28 15 WNW 0,0
13.12.2018 09:00:00 12,7 9,6 11 6 29 16 S 0,0
13.12.2018 08:00:00 13,6 9,8 16 9 37 20 S 0,0
13.12.2018 07:00:00 13,2 9,7 28 15 45 24 S -
13.12.2018 06:00:00 13,6 9,3 21 12 44 24 SSW 0,2
13.12.2018 05:00:00 12,8 9,4 18 10 32 17 S 1,1
13.12.2018 04:00:00 14,2 8,4 17 9 38 20 SSW 0,4
13.12.2018 03:00:00 15,1 7,4 19 10 32 17 SSW 0,0
13.12.2018 02:00:00 14,4 7,0 13 7 38 20 SSW 0,0
13.12.2018 01:00:00 14,3 6,8 16 8 32 17 SSW -
13.12.2018 00:00:00 13,7 6,8 16 9 35 19 S 0,0
12.12.2018 23:00:00 13,1 6,7 15 8 28 15 S 0,0
12.12.2018 22:00:00 13,3 7,7 12 7 39 21 SSW 0,0
12.12.2018 21:00:00 12,2 8,3 15 8 28 15 S 0,0
12.12.2018 20:00:00 11,4 9,2 4 2 11 6 S 0,0
12.12.2018 19:00:00 11,9 8,9 5 3 10 6 S -
12.12.2018 18:00:00 12,6 8,5 4 2 9 5 SSW 0,0
12.12.2018 17:00:00 12,8 8,3 6 3 8 4 ESE 0,0
12.12.2018 16:00:00 14,1 8,3 1 1 9 5 ESE 0,0
12.12.2018 15:00:00 15,4 9,7 7 4 11 6 S 0,0
12.12.2018 14:00:00 14,6 10,2 8 4 12 6 S 0,0
12.12.2018 13:00:00 - - - - - - - -
12.12.2018 12:00:00 14,7 11,9 6 3 11 6 SSW 0,0
12.12.2018 11:00:00 13,9 11,6 5 3 13 7 S 0,0
12.12.2018 10:00:00 11,5 11,0 2 1 13 7 SW 0,0
12.12.2018 09:00:00 12,0 11,7 5 3 26 14 SSW 0,4
12.12.2018 08:00:00 11,9 11,3 11 6 44 24 WNW 0,1
12.12.2018 07:00:00 12,5 11,6 0 0 40 22 N -
12.12.2018 06:00:00 13,3 11,2 4 2 16 9 W 0,0
12.12.2018 05:00:00 13,4 11,4 9 5 27 15 WNW 0,2
12.12.2018 04:00:00 14,1 10,9 11 6 28 15 WNW 0,0
12.12.2018 03:00:00 14,4 10,6 5 3 19 11 WNW 0,0
12.12.2018 02:00:00 11,8 9,9 6 3 15 8 SSW 0,0
12.12.2018 01:00:00 10,3 8,5 8 4 19 10 SSW -
12.12.2018 00:00:00 8,1 7,7 14 8 17 9 SSW 0,0
11.12.2018 23:00:00 7,6 7,1 13 7 18 10 SSW 0,0
11.12.2018 22:00:00 7,9 7,4 10 6 15 8 SSW 0,0
11.12.2018 21:00:00 8,5 7,8 11 6 14 7 SSW 0,0
11.12.2018 20:00:00 9,2 8,3 10 5 12 6 SSW 0,0
11.12.2018 19:00:00 9,8 8,4 6 3 8 4 SSW -
11.12.2018 18:00:00 10,6 8,5 6 3 8 5 S 0,0
11.12.2018 17:00:00 12,1 8,0 0 0 7 4 N 0,0
11.12.2018 16:00:00 13,0 8,1 0 0 7 4 WNW 0,0
11.12.2018 15:00:00 13,6 8,0 2 1 11 6 NNE 0,0
11.12.2018 14:00:00 13,3 8,0 6 3 12 7 NNW 0,0
11.12.2018 13:00:00 12,4 7,7 0 0 9 5 N -
11.12.2018 12:00:00 11,6 8,8 6 3 13 7 S 0,0
11.12.2018 11:00:00 9,4 8,5 10 5 16 9 SSW 0,0
11.12.2018 10:00:00 6,9 6,5 12 7 17 9 S 0,0
11.12.2018 09:00:00 5,6 5,5 14 7 18 10 S 0,0
11.12.2018 08:00:00 5,5 5,1 15 8 19 10 S 0,0
11.12.2018 07:00:00 5,5 5,1 15 8 18 10 S -
11.12.2018 06:00:00 5,8 5,5 14 7 18 10 S 0,0
11.12.2018 05:00:00 6,1 5,8 14 8 18 10 S 0,0
11.12.2018 04:00:00 6,2 5,9 13 7 16 9 S 0,0
11.12.2018 03:00:00 6,4 5,9 14 8 16 9 S 0,0
11.12.2018 02:00:00 - - - - - - - -
11.12.2018 01:00:00 7,2 6,5 13 7 16 9 S -

tt = Température de l'air
td = dewpoint
ff = Vitesse du vent
fx = gusts
dd = Direction du vent
rr = Quantités de précipitations

stations d'obs. à proximité